sensor_id;sensor_type;location;lat;lon;timestamp;P1;durP1;ratioP1;P2;durP2;ratioP2
33108;SDS011;19481;51.118;6.940;2022-11-18T00:00:09;2.40;;;1.30;;
33108;SDS011;19481;51.118;6.940;2022-11-18T00:05:13;3.50;;;1.50;;
33108;SDS011;19481;51.118;6.940;2022-11-18T00:10:15;3.33;;;1.67;;
33108;SDS011;19481;51.118;6.940;2022-11-18T00:15:17;1.80;;;1.48;;
33108;SDS011;19481;51.118;6.940;2022-11-18T00:20:20;5.88;;;1.20;;
33108;SDS011;19481;51.118;6.940;2022-11-18T00:25:21;11.10;;;1.50;;
33108;SDS011;19481;51.118;6.940;2022-11-18T00:30:23;5.38;;;1.40;;
33108;SDS011;19481;51.118;6.940;2022-11-18T00:35:26;5.13;;;1.77;;
33108;SDS011;19481;51.118;6.940;2022-11-18T00:40:27;3.25;;;1.25;;
33108;SDS011;19481;51.118;6.940;2022-11-18T00:45:29;1.98;;;1.23;;
33108;SDS011;19481;51.118;6.940;2022-11-18T00:50:32;2.65;;;1.63;;
33108;SDS011;19481;51.118;6.940;2022-11-18T00:55:33;3.28;;;1.50;;
33108;SDS011;19481;51.118;6.940;2022-11-18T01:00:35;3.25;;;1.30;;
33108;SDS011;19481;51.118;6.940;2022-11-18T01:05:38;2.25;;;1.25;;
33108;SDS011;19481;51.118;6.940;2022-11-18T01:10:40;4.80;;;1.50;;
33108;SDS011;19481;51.118;6.940;2022-11-18T01:15:42;2.20;;;1.50;;
33108;SDS011;19481;51.118;6.940;2022-11-18T01:20:47;5.55;;;1.50;;
33108;SDS011;19481;51.118;6.940;2022-11-18T01:25:49;3.30;;;1.40;;
33108;SDS011;19481;51.118;6.940;2022-11-18T01:30:50;3.67;;;1.42;;
33108;SDS011;19481;51.118;6.940;2022-11-18T01:35:53;4.32;;;1.25;;
33108;SDS011;19481;51.118;6.940;2022-11-18T01:40:55;1.88;;;1.15;;
33108;SDS011;19481;51.118;6.940;2022-11-18T01:45:57;3.30;;;1.58;;
33108;SDS011;19481;51.118;6.940;2022-11-18T01:51:00;4.00;;;1.25;;
33108;SDS011;19481;51.118;6.940;2022-11-18T01:56:07;6.00;;;1.85;;
33108;SDS011;19481;51.118;6.940;2022-11-18T02:01:12;2.13;;;1.15;;
33108;SDS011;19481;51.118;6.940;2022-11-18T02:06:15;3.35;;;1.25;;
33108;SDS011;19481;51.118;6.940;2022-11-18T02:11:18;4.05;;;1.30;;
33108;SDS011;19481;51.118;6.940;2022-11-18T02:16:43;1.90;;;1.38;;
33108;SDS011;19481;51.118;6.940;2022-11-18T02:21:59;5.15;;;1.58;;
33108;SDS011;19481;51.118;6.940;2022-11-18T02:27:18;3.78;;;1.40;;
33108;SDS011;19481;51.118;6.940;2022-11-18T02:32:45;2.13;;;1.30;;
33108;SDS011;19481;51.118;6.940;2022-11-18T02:37:53;2.20;;;1.40;;
33108;SDS011;19481;51.118;6.940;2022-11-18T02:43:01;4.45;;;1.52;;
33108;SDS011;19481;51.118;6.940;2022-11-18T02:48:09;4.38;;;1.75;;
33108;SDS011;19481;51.118;6.940;2022-11-18T02:53:13;2.42;;;1.30;;
33108;SDS011;19481;51.118;6.940;2022-11-18T02:58:19;1.80;;;1.40;;
33108;SDS011;19481;51.118;6.940;2022-11-18T03:03:25;2.58;;;1.38;;
33108;SDS011;19481;51.118;6.940;2022-11-18T03:08:29;2.58;;;1.20;;
33108;SDS011;19481;51.118;6.940;2022-11-18T03:13:37;6.53;;;1.70;;
33108;SDS011;19481;51.118;6.940;2022-11-18T03:18:51;3.40;;;1.67;;
33108;SDS011;19481;51.118;6.940;2022-11-18T03:23:58;2.70;;;1.15;;
33108;SDS011;19481;51.118;6.940;2022-11-18T03:29:09;7.28;;;1.58;;
33108;SDS011;19481;51.118;6.940;2022-11-18T03:34:19;2.90;;;1.98;;
33108;SDS011;19481;51.118;6.940;2022-11-18T03:39:25;1.83;;;1.20;;
33108;SDS011;19481;51.118;6.940;2022-11-18T03:44:30;5.50;;;1.73;;
33108;SDS011;19481;51.118;6.940;2022-11-18T03:49:39;1.80;;;1.40;;
33108;SDS011;19481;51.118;6.940;2022-11-18T03:54:47;4.13;;;1.63;;
33108;SDS011;19481;51.118;6.940;2022-11-18T03:59:54;6.85;;;1.70;;
33108;SDS011;19481;51.118;6.940;2022-11-18T04:05:01;4.50;;;1.53;;
33108;SDS011;19481;51.118;6.940;2022-11-18T04:10:07;2.45;;;1.50;;
33108;SDS011;19481;51.118;6.940;2022-11-18T04:15:13;1.98;;;1.38;;
33108;SDS011;19481;51.118;6.940;2022-11-18T04:20:18;5.53;;;1.58;;
33108;SDS011;19481;51.118;6.940;2022-11-18T04:25:20;3.42;;;1.75;;
33108;SDS011;19481;51.118;6.940;2022-11-18T04:30:23;3.80;;;1.52;;
33108;SDS011;19481;51.118;6.940;2022-11-18T04:35:26;6.93;;;1.50;;
33108;SDS011;19481;51.118;6.940;2022-11-18T04:40:27;2.75;;;1.48;;
33108;SDS011;19481;51.118;6.940;2022-11-18T04:45:29;6.60;;;1.92;;
33108;SDS011;19481;51.118;6.940;2022-11-18T04:50:32;2.72;;;1.52;;
33108;SDS011;19481;51.118;6.940;2022-11-18T04:55:34;3.53;;;1.55;;
33108;SDS011;19481;51.118;6.940;2022-11-18T05:00:35;4.47;;;1.65;;
33108;SDS011;19481;51.118;6.940;2022-11-18T05:05:38;5.75;;;1.73;;
33108;SDS011;19481;51.118;6.940;2022-11-18T05:10:40;4.20;;;2.08;;
33108;SDS011;19481;51.118;6.940;2022-11-18T05:15:42;5.40;;;2.00;;
33108;SDS011;19481;51.118;6.940;2022-11-18T05:20:45;4.53;;;1.70;;
33108;SDS011;19481;51.118;6.940;2022-11-18T05:25:46;3.63;;;2.17;;
33108;SDS011;19481;51.118;6.940;2022-11-18T05:30:48;3.58;;;1.70;;
33108;SDS011;19481;51.118;6.940;2022-11-18T05:35:51;5.88;;;1.92;;
33108;SDS011;19481;51.118;6.940;2022-11-18T05:40:52;3.72;;;2.00;;
33108;SDS011;19481;51.118;6.940;2022-11-18T05:45:54;2.45;;;2.00;;
33108;SDS011;19481;51.118;6.940;2022-11-18T05:50:57;4.30;;;2.10;;
33108;SDS011;19481;51.118;6.940;2022-11-18T05:56:00;8.18;;;1.92;;
33108;SDS011;19481;51.118;6.940;2022-11-18T06:01:07;4.15;;;2.05;;
33108;SDS011;19481;51.118;6.940;2022-11-18T06:06:11;4.97;;;2.28;;
33108;SDS011;19481;51.118;6.940;2022-11-18T06:11:16;4.22;;;2.10;;
33108;SDS011;19481;51.118;6.940;2022-11-18T06:16:20;5.60;;;2.35;;
33108;SDS011;19481;51.118;6.940;2022-11-18T06:21:28;7.00;;;2.08;;
33108;SDS011;19481;51.118;6.940;2022-11-18T06:26:30;5.68;;;2.60;;
33108;SDS011;19481;51.118;6.940;2022-11-18T06:31:32;5.18;;;1.92;;
33108;SDS011;19481;51.118;6.940;2022-11-18T06:36:35;6.13;;;2.38;;
33108;SDS011;19481;51.118;6.940;2022-11-18T06:41:36;5.82;;;2.40;;
33108;SDS011;19481;51.118;6.940;2022-11-18T06:46:38;4.65;;;1.98;;
33108;SDS011;19481;51.118;6.940;2022-11-18T06:51:59;3.75;;;2.50;;
33108;SDS011;19481;51.118;6.940;2022-11-18T06:57:01;9.07;;;2.40;;
33108;SDS011;19481;51.118;6.940;2022-11-18T07:02:03;9.68;;;2.60;;
33108;SDS011;19481;51.118;6.940;2022-11-18T07:07:06;4.47;;;2.42;;
33108;SDS011;19481;51.118;6.940;2022-11-18T07:12:08;6.63;;;2.10;;
33108;SDS011;19481;51.118;6.940;2022-11-18T07:17:09;8.15;;;2.33;;
33108;SDS011;19481;51.118;6.940;2022-11-18T07:22:13;23.65;;;3.80;;
33108;SDS011;19481;51.118;6.940;2022-11-18T07:27:14;18.05;;;4.13;;
33108;SDS011;19481;51.118;6.940;2022-11-18T07:32:16;7.25;;;2.20;;
33108;SDS011;19481;51.118;6.940;2022-11-18T07:37:19;7.63;;;2.75;;
33108;SDS011;19481;51.118;6.940;2022-11-18T07:42:20;4.22;;;2.08;;
33108;SDS011;19481;51.118;6.940;2022-11-18T07:47:22;11.40;;;2.85;;
33108;SDS011;19481;51.118;6.940;2022-11-18T07:52:25;7.35;;;2.80;;
33108;SDS011;19481;51.118;6.940;2022-11-18T07:57:26;8.60;;;2.60;;
33108;SDS011;19481;51.118;6.940;2022-11-18T08:02:28;13.10;;;2.72;;
33108;SDS011;19481;51.118;6.940;2022-11-18T08:07:32;6.22;;;2.30;;
33108;SDS011;19481;51.118;6.940;2022-11-18T08:12:33;9.05;;;2.83;;
33108;SDS011;19481;51.118;6.940;2022-11-18T08:17:35;5.35;;;2.40;;
33108;SDS011;19481;51.118;6.940;2022-11-18T08:22:38;7.68;;;2.70;;
33108;SDS011;19481;51.118;6.940;2022-11-18T08:27:40;7.07;;;2.40;;
33108;SDS011;19481;51.118;6.940;2022-11-18T08:32:41;35.35;;;3.45;;
33108;SDS011;19481;51.118;6.940;2022-11-18T08:37:45;6.55;;;2.58;;
33108;SDS011;19481;51.118;6.940;2022-11-18T08:42:46;3.17;;;2.20;;
33108;SDS011;19481;51.118;6.940;2022-11-18T08:47:48;4.13;;;2.38;;
33108;SDS011;19481;51.118;6.940;2022-11-18T08:52:51;5.88;;;2.22;;
33108;SDS011;19481;51.118;6.940;2022-11-18T08:57:53;4.45;;;2.30;;
33108;SDS011;19481;51.118;6.940;2022-11-18T09:02:54;4.35;;;1.88;;
33108;SDS011;19481;51.118;6.940;2022-11-18T09:07:57;5.47;;;1.98;;
33108;SDS011;19481;51.118;6.940;2022-11-18T09:12:59;5.05;;;1.80;;
33108;SDS011;19481;51.118;6.940;2022-11-18T09:18:01;2.38;;;1.60;;
33108;SDS011;19481;51.118;6.940;2022-11-18T09:23:04;2.72;;;1.70;;
33108;SDS011;19481;51.118;6.940;2022-11-18T09:28:05;4.35;;;1.80;;
33108;SDS011;19481;51.118;6.940;2022-11-18T09:33:07;5.20;;;1.70;;
33108;SDS011;19481;51.118;6.940;2022-11-18T09:38:10;2.42;;;1.35;;
33108;SDS011;19481;51.118;6.940;2022-11-18T09:43:13;6.07;;;1.70;;
33108;SDS011;19481;51.118;6.940;2022-11-18T09:48:21;4.80;;;1.80;;
33108;SDS011;19481;51.118;6.940;2022-11-18T09:53:46;7.28;;;1.75;;
33108;SDS011;19481;51.118;6.940;2022-11-18T09:58:47;6.35;;;2.28;;
33108;SDS011;19481;51.118;6.940;2022-11-18T10:03:49;2.83;;;1.85;;
33108;SDS011;19481;51.118;6.940;2022-11-18T10:08:57;8.40;;;1.75;;
33108;SDS011;19481;51.118;6.940;2022-11-18T10:14:09;9.77;;;1.65;;
33108;SDS011;19481;51.118;6.940;2022-11-18T10:19:23;6.03;;;1.90;;
33108;SDS011;19481;51.118;6.940;2022-11-18T10:24:32;8.80;;;2.10;;
33108;SDS011;19481;51.118;6.940;2022-11-18T10:29:37;4.40;;;1.67;;
33108;SDS011;19481;51.118;6.940;2022-11-18T10:34:45;4.50;;;1.60;;
33108;SDS011;19481;51.118;6.940;2022-11-18T10:39:50;4.18;;;1.77;;
33108;SDS011;19481;51.118;6.940;2022-11-18T10:44:54;2.97;;;1.52;;
33108;SDS011;19481;51.118;6.940;2022-11-18T10:49:57;3.78;;;1.40;;
33108;SDS011;19481;51.118;6.940;2022-11-18T10:55:15;2.85;;;1.60;;
33108;SDS011;19481;51.118;6.940;2022-11-18T11:00:34;3.30;;;1.27;;
33108;SDS011;19481;51.118;6.940;2022-11-18T11:05:38;6.00;;;1.60;;
33108;SDS011;19481;51.118;6.940;2022-11-18T11:10:41;3.15;;;1.27;;
33108;SDS011;19481;51.118;6.940;2022-11-18T11:15:56;4.18;;;1.30;;
33108;SDS011;19481;51.118;6.940;2022-11-18T11:21:02;2.45;;;1.23;;
33108;SDS011;19481;51.118;6.940;2022-11-18T11:26:06;4.95;;;1.30;;
33108;SDS011;19481;51.118;6.940;2022-11-18T11:31:15;5.32;;;1.40;;
33108;SDS011;19481;51.118;6.940;2022-11-18T11:41:30;4.57;;;1.48;;
33108;SDS011;19481;51.118;6.940;2022-11-18T11:46:42;4.47;;;2.33;;
33108;SDS011;19481;51.118;6.940;2022-11-18T11:52:10;6.80;;;2.30;;
33108;SDS011;19481;51.118;6.940;2022-11-18T11:57:22;4.57;;;1.35;;
33108;SDS011;19481;51.118;6.940;2022-11-18T12:02:55;5.32;;;2.00;;
33108;SDS011;19481;51.118;6.940;2022-11-18T12:08:07;5.97;;;1.33;;
33108;SDS011;19481;51.118;6.940;2022-11-18T12:18:37;4.05;;;1.45;;
33108;SDS011;19481;51.118;6.940;2022-11-18T12:23:42;5.38;;;2.35;;
33108;SDS011;19481;51.118;6.940;2022-11-18T12:29:23;3.95;;;1.45;;
33108;SDS011;19481;51.118;6.940;2022-11-18T12:45:17;7.65;;;4.65;;
33108;SDS011;19481;51.118;6.940;2022-11-18T12:50:47;5.43;;;1.60;;
33108;SDS011;19481;51.118;6.940;2022-11-18T12:55:50;9.20;;;4.22;;
33108;SDS011;19481;51.118;6.940;2022-11-18T13:01:02;4.22;;;1.40;;
33108;SDS011;19481;51.118;6.940;2022-11-18T13:06:12;3.08;;;1.60;;
33108;SDS011;19481;51.118;6.940;2022-11-18T13:11:20;6.97;;;1.60;;
33108;SDS011;19481;51.118;6.940;2022-11-18T13:16:40;4.43;;;1.40;;
33108;SDS011;19481;51.118;6.940;2022-11-18T13:22:02;8.55;;;1.63;;
33108;SDS011;19481;51.118;6.940;2022-11-18T13:27:24;3.40;;;1.50;;
33108;SDS011;19481;51.118;6.940;2022-11-18T13:32:35;7.57;;;1.27;;
33108;SDS011;19481;51.118;6.940;2022-11-18T13:37:50;5.03;;;1.40;;
33108;SDS011;19481;51.118;6.940;2022-11-18T13:42:53;3.65;;;1.30;;
33108;SDS011;19481;51.118;6.940;2022-11-18T13:47:56;5.93;;;1.48;;
33108;SDS011;19481;51.118;6.940;2022-11-18T13:53:10;3.15;;;1.15;;
33108;SDS011;19481;51.118;6.940;2022-11-18T13:58:25;7.95;;;1.58;;
33108;SDS011;19481;51.118;6.940;2022-11-18T14:03:34;2.75;;;1.48;;
33108;SDS011;19481;51.118;6.940;2022-11-18T14:08:42;2.35;;;1.20;;
33108;SDS011;19481;51.118;6.940;2022-11-18T14:13:46;7.30;;;1.38;;
33108;SDS011;19481;51.118;6.940;2022-11-18T14:18:51;4.55;;;1.40;;
33108;SDS011;19481;51.118;6.940;2022-11-18T14:23:54;5.93;;;1.75;;
33108;SDS011;19481;51.118;6.940;2022-11-18T14:28:57;4.00;;;1.40;;
33108;SDS011;19481;51.118;6.940;2022-11-18T14:34:04;6.78;;;2.20;;
33108;SDS011;19481;51.118;6.940;2022-11-18T14:39:20;9.80;;;3.67;;
33108;SDS011;19481;51.118;6.940;2022-11-18T14:44:24;7.20;;;2.92;;
33108;SDS011;19481;51.118;6.940;2022-11-18T14:49:28;6.00;;;2.20;;
33108;SDS011;19481;51.118;6.940;2022-11-18T14:54:33;5.45;;;2.25;;
33108;SDS011;19481;51.118;6.940;2022-11-18T14:59:35;11.18;;;1.90;;
33108;SDS011;19481;51.118;6.940;2022-11-18T15:04:37;6.63;;;2.35;;
33108;SDS011;19481;51.118;6.940;2022-11-18T15:09:41;4.20;;;2.10;;
33108;SDS011;19481;51.118;6.940;2022-11-18T15:14:43;9.55;;;2.45;;
33108;SDS011;19481;51.118;6.940;2022-11-18T15:19:45;11.18;;;3.00;;
33108;SDS011;19481;51.118;6.940;2022-11-18T15:24:49;9.23;;;3.65;;
33108;SDS011;19481;51.118;6.940;2022-11-18T15:29:51;10.98;;;2.00;;
33108;SDS011;19481;51.118;6.940;2022-11-18T15:34:53;6.38;;;3.78;;
33108;SDS011;19481;51.118;6.940;2022-11-18T15:39:57;13.88;;;2.92;;
33108;SDS011;19481;51.118;6.940;2022-11-18T15:44:59;24.38;;;12.43;;
33108;SDS011;19481;51.118;6.940;2022-11-18T15:50:00;9.43;;;3.42;;
33108;SDS011;19481;51.118;6.940;2022-11-18T15:55:04;6.43;;;2.63;;
33108;SDS011;19481;51.118;6.940;2022-11-18T16:00:06;5.10;;;2.38;;
33108;SDS011;19481;51.118;6.940;2022-11-18T16:05:09;8.52;;;2.50;;
33108;SDS011;19481;51.118;6.940;2022-11-18T16:10:12;7.07;;;2.72;;
33108;SDS011;19481;51.118;6.940;2022-11-18T16:15:32;8.30;;;3.13;;
33108;SDS011;19481;51.118;6.940;2022-11-18T16:20:43;8.85;;;2.63;;
33108;SDS011;19481;51.118;6.940;2022-11-18T16:25:46;6.53;;;2.30;;
33108;SDS011;19481;51.118;6.940;2022-11-18T16:30:48;5.15;;;2.55;;
33108;SDS011;19481;51.118;6.940;2022-11-18T16:36:07;7.72;;;2.63;;
33108;SDS011;19481;51.118;6.940;2022-11-18T16:41:10;9.82;;;3.50;;
33108;SDS011;19481;51.118;6.940;2022-11-18T16:46:26;8.60;;;3.35;;
33108;SDS011;19481;51.118;6.940;2022-11-18T16:51:28;13.70;;;3.22;;
33108;SDS011;19481;51.118;6.940;2022-11-18T16:56:33;15.32;;;4.63;;
33108;SDS011;19481;51.118;6.940;2022-11-18T17:01:35;11.45;;;4.60;;
33108;SDS011;19481;51.118;6.940;2022-11-18T17:06:37;10.38;;;4.78;;
33108;SDS011;19481;51.118;6.940;2022-11-18T17:11:41;11.15;;;5.00;;
33108;SDS011;19481;51.118;6.940;2022-11-18T17:16:43;10.75;;;5.50;;
33108;SDS011;19481;51.118;6.940;2022-11-18T17:21:45;14.10;;;5.55;;
33108;SDS011;19481;51.118;6.940;2022-11-18T17:26:49;10.95;;;5.68;;
33108;SDS011;19481;51.118;6.940;2022-11-18T17:31:50;15.25;;;6.03;;
33108;SDS011;19481;51.118;6.940;2022-11-18T17:36:52;11.27;;;6.32;;
33108;SDS011;19481;51.118;6.940;2022-11-18T17:41:55;12.85;;;6.40;;
33108;SDS011;19481;51.118;6.940;2022-11-18T17:47:16;6.43;;;5.25;;
33108;SDS011;19481;51.118;6.940;2022-11-18T17:52:18;13.90;;;6.22;;
33108;SDS011;19481;51.118;6.940;2022-11-18T17:57:21;12.93;;;6.55;;
33108;SDS011;19481;51.118;6.940;2022-11-18T18:02:22;10.80;;;5.85;;
33108;SDS011;19481;51.118;6.940;2022-11-18T18:07:24;8.82;;;6.20;;
33108;SDS011;19481;51.118;6.940;2022-11-18T18:12:28;11.25;;;6.97;;
33108;SDS011;19481;51.118;6.940;2022-11-18T18:17:47;13.30;;;8.45;;
33108;SDS011;19481;51.118;6.940;2022-11-18T18:22:49;18.05;;;10.60;;
33108;SDS011;19481;51.118;6.940;2022-11-18T18:27:52;34.10;;;16.67;;
33108;SDS011;19481;51.118;6.940;2022-11-18T18:32:54;17.63;;;8.77;;
33108;SDS011;19481;51.118;6.940;2022-11-18T18:37:56;31.02;;;12.50;;
33108;SDS011;19481;51.118;6.940;2022-11-18T18:42:58;15.63;;;8.13;;
33108;SDS011;19481;51.118;6.940;2022-11-18T18:48:00;17.30;;;7.88;;
33108;SDS011;19481;51.118;6.940;2022-11-18T18:53:02;17.77;;;7.82;;
33108;SDS011;19481;51.118;6.940;2022-11-18T18:58:05;12.48;;;5.97;;
33108;SDS011;19481;51.118;6.940;2022-11-18T19:03:07;11.05;;;5.80;;
33108;SDS011;19481;51.118;6.940;2022-11-18T19:08:09;11.15;;;5.53;;
33108;SDS011;19481;51.118;6.940;2022-11-18T19:13:12;8.10;;;5.13;;
33108;SDS011;19481;51.118;6.940;2022-11-18T19:18:13;9.60;;;5.75;;
33108;SDS011;19481;51.118;6.940;2022-11-18T19:23:15;12.77;;;6.90;;
33108;SDS011;19481;51.118;6.940;2022-11-18T19:28:18;10.05;;;5.13;;
33108;SDS011;19481;51.118;6.940;2022-11-18T19:33:20;8.57;;;4.90;;
33108;SDS011;19481;51.118;6.940;2022-11-18T19:38:21;9.68;;;5.30;;
33108;SDS011;19481;51.118;6.940;2022-11-18T19:43:24;11.88;;;5.93;;
33108;SDS011;19481;51.118;6.940;2022-11-18T19:48:27;11.30;;;6.75;;
33108;SDS011;19481;51.118;6.940;2022-11-18T19:53:29;12.38;;;6.55;;
33108;SDS011;19481;51.118;6.940;2022-11-18T19:58:36;11.65;;;6.50;;
33108;SDS011;19481;51.118;6.940;2022-11-18T20:03:40;19.13;;;7.03;;
33108;SDS011;19481;51.118;6.940;2022-11-18T20:08:43;13.30;;;6.28;;
33108;SDS011;19481;51.118;6.940;2022-11-18T20:13:46;15.95;;;7.80;;
33108;SDS011;19481;51.118;6.940;2022-11-18T20:18:50;14.32;;;6.80;;
33108;SDS011;19481;51.118;6.940;2022-11-18T20:23:53;12.93;;;7.20;;
33108;SDS011;19481;51.118;6.940;2022-11-18T20:28:57;14.43;;;6.90;;
33108;SDS011;19481;51.118;6.940;2022-11-18T20:33:59;19.17;;;8.70;;
33108;SDS011;19481;51.118;6.940;2022-11-18T20:39:02;26.15;;;14.32;;
33108;SDS011;19481;51.118;6.940;2022-11-18T20:44:06;16.65;;;10.57;;
33108;SDS011;19481;51.118;6.940;2022-11-18T20:49:08;14.90;;;9.30;;
33108;SDS011;19481;51.118;6.940;2022-11-18T20:54:10;20.20;;;9.15;;
33108;SDS011;19481;51.118;6.940;2022-11-18T20:59:13;16.08;;;8.63;;
33108;SDS011;19481;51.118;6.940;2022-11-18T21:04:15;20.85;;;12.90;;
33108;SDS011;19481;51.118;6.940;2022-11-18T21:09:16;15.40;;;9.00;;
33108;SDS011;19481;51.118;6.940;2022-11-18T21:14:20;10.48;;;6.85;;
33108;SDS011;19481;51.118;6.940;2022-11-18T21:19:24;12.07;;;7.57;;
33108;SDS011;19481;51.118;6.940;2022-11-18T21:24:27;11.40;;;7.57;;
33108;SDS011;19481;51.118;6.940;2022-11-18T21:29:32;13.30;;;7.00;;
33108;SDS011;19481;51.118;6.940;2022-11-18T21:34:33;11.38;;;6.43;;
33108;SDS011;19481;51.118;6.940;2022-11-18T21:39:35;10.35;;;6.50;;
33108;SDS011;19481;51.118;6.940;2022-11-18T21:44:38;12.23;;;6.30;;
33108;SDS011;19481;51.118;6.940;2022-11-18T21:49:39;9.90;;;6.93;;
33108;SDS011;19481;51.118;6.940;2022-11-18T21:54:41;12.90;;;7.43;;
33108;SDS011;19481;51.118;6.940;2022-11-18T21:59:44;11.02;;;7.18;;
33108;SDS011;19481;51.118;6.940;2022-11-18T22:04:46;9.10;;;6.15;;
33108;SDS011;19481;51.118;6.940;2022-11-18T22:10:02;10.55;;;5.85;;
33108;SDS011;19481;51.118;6.940;2022-11-18T22:15:06;8.60;;;5.55;;
33108;SDS011;19481;51.118;6.940;2022-11-18T22:20:09;6.55;;;5.03;;
33108;SDS011;19481;51.118;6.940;2022-11-18T22:25:12;8.77;;;5.78;;
33108;SDS011;19481;51.118;6.940;2022-11-18T22:30:15;7.03;;;4.90;;
33108;SDS011;19481;51.118;6.940;2022-11-18T22:35:17;5.88;;;4.88;;
33108;SDS011;19481;51.118;6.940;2022-11-18T22:40:18;7.38;;;5.00;;
33108;SDS011;19481;51.118;6.940;2022-11-18T22:45:21;7.43;;;5.22;;
33108;SDS011;19481;51.118;6.940;2022-11-18T22:50:23;7.18;;;5.55;;
33108;SDS011;19481;51.118;6.940;2022-11-18T22:55:24;6.38;;;4.88;;
33108;SDS011;19481;51.118;6.940;2022-11-18T23:00:27;9.55;;;5.00;;
33108;SDS011;19481;51.118;6.940;2022-11-18T23:05:30;7.10;;;4.88;;
33108;SDS011;19481;51.118;6.940;2022-11-18T23:10:32;8.88;;;4.95;;
33108;SDS011;19481;51.118;6.940;2022-11-18T23:15:34;6.80;;;4.85;;
33108;SDS011;19481;51.118;6.940;2022-11-18T23:20:36;7.32;;;4.80;;
33108;SDS011;19481;51.118;6.940;2022-11-18T23:25:38;9.25;;;5.18;;
33108;SDS011;19481;51.118;6.940;2022-11-18T23:30:41;6.88;;;5.13;;
33108;SDS011;19481;51.118;6.940;2022-11-18T23:35:49;8.50;;;5.13;;
33108;SDS011;19481;51.118;6.940;2022-11-18T23:40:52;6.07;;;4.70;;
33108;SDS011;19481;51.118;6.940;2022-11-18T23:45:56;6.25;;;4.82;;
33108;SDS011;19481;51.118;6.940;2022-11-18T23:50:58;6.35;;;4.53;;
33108;SDS011;19481;51.118;6.940;2022-11-18T23:56:02;9.48;;;4.70;;
